sensor_id;sensor_type;location;lat;lon;timestamp;temperature;humidity
74153;DHT22;62505;46.070;14.492;2023-08-06T00:01:55;24.40;75.00
74153;DHT22;62505;46.070;14.492;2023-08-06T00:04:23;24.40;74.80
74153;DHT22;62505;46.070;14.492;2023-08-06T00:06:50;24.40;74.90
74153;DHT22;62505;46.070;14.492;2023-08-06T00:09:17;24.40;74.50
74153;DHT22;62505;46.070;14.492;2023-08-06T00:11:45;24.40;74.40
74153;DHT22;62505;46.070;14.492;2023-08-06T00:14:12;24.40;74.80
74153;DHT22;62505;46.070;14.492;2023-08-06T00:16:43;24.40;74.40
74153;DHT22;62505;46.070;14.492;2023-08-06T00:19:10;24.40;74.50
74153;DHT22;62505;46.070;14.492;2023-08-06T00:21:37;24.40;74.40
74153;DHT22;62505;46.070;14.492;2023-08-06T00:24:04;24.40;74.60
74153;DHT22;62505;46.070;14.492;2023-08-06T00:26:31;24.40;74.50
74153;DHT22;62505;46.070;14.492;2023-08-06T00:29:00;24.40;74.30
74153;DHT22;62505;46.070;14.492;2023-08-06T00:31:27;24.40;74.50
74153;DHT22;62505;46.070;14.492;2023-08-06T00:33:54;24.40;74.00
74153;DHT22;62505;46.070;14.492;2023-08-06T00:36:21;24.40;74.00
74153;DHT22;62505;46.070;14.492;2023-08-06T00:38:48;24.30;74.10
74153;DHT22;62505;46.070;14.492;2023-08-06T00:41:15;24.40;74.30
74153;DHT22;62505;46.070;14.492;2023-08-06T00:43:42;24.30;74.40
74153;DHT22;62505;46.070;14.492;2023-08-06T00:46:11;24.30;74.30
74153;DHT22;62505;46.070;14.492;2023-08-06T00:48:38;24.40;74.20
74153;DHT22;62505;46.070;14.492;2023-08-06T00:51:06;24.40;74.00
74153;DHT22;62505;46.070;14.492;2023-08-06T00:53:33;24.30;74.00
74153;DHT22;62505;46.070;14.492;2023-08-06T00:56:00;24.30;74.20
74153;DHT22;62505;46.070;14.492;2023-08-06T00:58:28;24.40;74.10
74153;DHT22;62505;46.070;14.492;2023-08-06T01:00:55;24.30;74.10
74153;DHT22;62505;46.070;14.492;2023-08-06T01:03:24;24.40;74.00
74153;DHT22;62505;46.070;14.492;2023-08-06T01:05:51;24.40;74.00
74153;DHT22;62505;46.070;14.492;2023-08-06T01:08:28;24.30;73.80
74153;DHT22;62505;46.070;14.492;2023-08-06T01:11:05;24.30;73.80
74153;DHT22;62505;46.070;14.492;2023-08-06T01:13:41;24.30;73.70
74153;DHT22;62505;46.070;14.492;2023-08-06T01:16:09;24.30;73.80
74153;DHT22;62505;46.070;14.492;2023-08-06T01:18:38;24.30;73.80
74153;DHT22;62505;46.070;14.492;2023-08-06T01:21:08;24.30;73.70
74153;DHT22;62505;46.070;14.492;2023-08-06T01:23:35;24.30;73.90
74153;DHT22;62505;46.070;14.492;2023-08-06T01:26:10;24.30;73.70
74153;DHT22;62505;46.070;14.492;2023-08-06T01:28:42;24.30;73.60
74153;DHT22;62505;46.070;14.492;2023-08-06T01:31:15;24.30;73.70
74153;DHT22;62505;46.070;14.492;2023-08-06T01:33:45;24.30;73.50
74153;DHT22;62505;46.070;14.492;2023-08-06T01:36:16;24.30;73.60
74153;DHT22;62505;46.070;14.492;2023-08-06T01:38:44;24.30;73.40
74153;DHT22;62505;46.070;14.492;2023-08-06T01:41:11;24.30;73.50
74153;DHT22;62505;46.070;14.492;2023-08-06T01:43:38;24.30;73.50
74153;DHT22;62505;46.070;14.492;2023-08-06T01:46:05;24.30;73.70
74153;DHT22;62505;46.070;14.492;2023-08-06T01:48:32;24.30;73.40
74153;DHT22;62505;46.070;14.492;2023-08-06T01:50:59;24.30;73.30
74153;DHT22;62505;46.070;14.492;2023-08-06T01:53:27;24.30;73.30
74153;DHT22;62505;46.070;14.492;2023-08-06T01:55:54;24.30;73.40
74153;DHT22;62505;46.070;14.492;2023-08-06T01:58:21;24.30;73.30
74153;DHT22;62505;46.070;14.492;2023-08-06T02:00:49;24.30;73.30
74153;DHT22;62505;46.070;14.492;2023-08-06T02:03:16;24.30;73.10
74153;DHT22;62505;46.070;14.492;2023-08-06T02:05:43;24.30;73.20
74153;DHT22;62505;46.070;14.492;2023-08-06T02:08:11;24.30;73.00
74153;DHT22;62505;46.070;14.492;2023-08-06T02:10:39;24.30;73.10
74153;DHT22;62505;46.070;14.492;2023-08-06T02:13:07;24.30;73.10
74153;DHT22;62505;46.070;14.492;2023-08-06T02:15:34;24.30;73.10
74153;DHT22;62505;46.070;14.492;2023-08-06T02:18:01;24.30;73.00
74153;DHT22;62505;46.070;14.492;2023-08-06T02:20:28;24.30;73.20
74153;DHT22;62505;46.070;14.492;2023-08-06T02:22:55;24.30;73.00
74153;DHT22;62505;46.070;14.492;2023-08-06T02:25:22;24.30;72.90
74153;DHT22;62505;46.070;14.492;2023-08-06T02:27:50;24.30;73.10
74153;DHT22;62505;46.070;14.492;2023-08-06T02:30:17;24.30;72.80
74153;DHT22;62505;46.070;14.492;2023-08-06T02:32:44;24.30;72.80
74153;DHT22;62505;46.070;14.492;2023-08-06T02:35:12;24.20;72.90
74153;DHT22;62505;46.070;14.492;2023-08-06T02:37:39;24.30;72.90
74153;DHT22;62505;46.070;14.492;2023-08-06T02:40:07;24.30;73.20
74153;DHT22;62505;46.070;14.492;2023-08-06T02:42:34;24.30;72.80
74153;DHT22;62505;46.070;14.492;2023-08-06T02:45:03;24.30;72.80
74153;DHT22;62505;46.070;14.492;2023-08-06T02:47:30;24.30;72.90
74153;DHT22;62505;46.070;14.492;2023-08-06T02:49:57;24.20;72.80
74153;DHT22;62505;46.070;14.492;2023-08-06T02:52:24;24.30;72.90
74153;DHT22;62505;46.070;14.492;2023-08-06T02:54:51;24.20;72.80
74153;DHT22;62505;46.070;14.492;2023-08-06T02:57:18;24.20;72.60
74153;DHT22;62505;46.070;14.492;2023-08-06T02:59:45;24.30;72.70
74153;DHT22;62505;46.070;14.492;2023-08-06T03:02:14;24.20;72.50
74153;DHT22;62505;46.070;14.492;2023-08-06T03:04:41;24.20;72.60
74153;DHT22;62505;46.070;14.492;2023-08-06T03:07:08;24.30;72.90
74153;DHT22;62505;46.070;14.492;2023-08-06T03:09:35;24.20;72.50
74153;DHT22;62505;46.070;14.492;2023-08-06T03:12:02;24.20;72.50
74153;DHT22;62505;46.070;14.492;2023-08-06T03:14:29;24.20;72.60
74153;DHT22;62505;46.070;14.492;2023-08-06T03:16:56;24.20;72.40
74153;DHT22;62505;46.070;14.492;2023-08-06T03:19:24;24.20;72.40
74153;DHT22;62505;46.070;14.492;2023-08-06T03:21:51;24.20;72.40
74153;DHT22;62505;46.070;14.492;2023-08-06T03:24:18;24.20;72.50
74153;DHT22;62505;46.070;14.492;2023-08-06T03:26:45;24.20;72.40
74153;DHT22;62505;46.070;14.492;2023-08-06T03:29:12;24.20;72.50
74153;DHT22;62505;46.070;14.492;2023-08-06T03:31:39;24.20;72.50
74153;DHT22;62505;46.070;14.492;2023-08-06T03:34:06;24.20;72.20
74153;DHT22;62505;46.070;14.492;2023-08-06T03:36:35;24.20;72.40
74153;DHT22;62505;46.070;14.492;2023-08-06T03:39:02;24.20;72.40
74153;DHT22;62505;46.070;14.492;2023-08-06T03:41:29;24.20;72.30
74153;DHT22;62505;46.070;14.492;2023-08-06T03:43:56;24.20;72.40
74153;DHT22;62505;46.070;14.492;2023-08-06T03:46:23;24.20;72.20
74153;DHT22;62505;46.070;14.492;2023-08-06T03:48:51;24.20;73.00
74153;DHT22;62505;46.070;14.492;2023-08-06T03:51:18;24.20;72.30
74153;DHT22;62505;46.070;14.492;2023-08-06T03:53:46;24.20;72.10
74153;DHT22;62505;46.070;14.492;2023-08-06T03:56:13;24.20;72.30
74153;DHT22;62505;46.070;14.492;2023-08-06T03:58:40;24.20;72.20
74153;DHT22;62505;46.070;14.492;2023-08-06T04:01:07;24.20;72.10
74153;DHT22;62505;46.070;14.492;2023-08-06T04:03:34;24.20;72.30
74153;DHT22;62505;46.070;14.492;2023-08-06T04:06:02;24.20;72.10
74153;DHT22;62505;46.070;14.492;2023-08-06T04:08:29;24.20;73.00
74153;DHT22;62505;46.070;14.492;2023-08-06T04:10:59;24.20;72.10
74153;DHT22;62505;46.070;14.492;2023-08-06T04:13:26;24.20;72.20
74153;DHT22;62505;46.070;14.492;2023-08-06T04:15:53;24.20;72.30
74153;DHT22;62505;46.070;14.492;2023-08-06T04:18:20;24.20;72.10
74153;DHT22;62505;46.070;14.492;2023-08-06T04:20:47;24.20;72.10
74153;DHT22;62505;46.070;14.492;2023-08-06T04:23:15;24.20;72.30
74153;DHT22;62505;46.070;14.492;2023-08-06T04:25:42;24.20;72.20
74153;DHT22;62505;46.070;14.492;2023-08-06T04:28:10;24.20;72.30
74153;DHT22;62505;46.070;14.492;2023-08-06T04:30:37;24.20;72.30
74153;DHT22;62505;46.070;14.492;2023-08-06T04:33:04;24.20;72.00
74153;DHT22;62505;46.070;14.492;2023-08-06T04:35:31;24.20;72.10
74153;DHT22;62505;46.070;14.492;2023-08-06T04:37:58;24.20;72.20
74153;DHT22;62505;46.070;14.492;2023-08-06T04:40:26;24.20;72.00
74153;DHT22;62505;46.070;14.492;2023-08-06T04:42:53;24.20;72.20
74153;DHT22;62505;46.070;14.492;2023-08-06T04:45:22;24.20;72.10
74153;DHT22;62505;46.070;14.492;2023-08-06T04:47:50;24.20;72.30
74153;DHT22;62505;46.070;14.492;2023-08-06T04:50:17;24.20;72.40
74153;DHT22;62505;46.070;14.492;2023-08-06T04:52:44;24.20;72.10
74153;DHT22;62505;46.070;14.492;2023-08-06T04:55:11;24.20;72.10
74153;DHT22;62505;46.070;14.492;2023-08-06T04:57:38;24.20;72.10
74153;DHT22;62505;46.070;14.492;2023-08-06T05:00:06;24.20;72.00
74153;DHT22;62505;46.070;14.492;2023-08-06T05:02:34;24.20;72.00
74153;DHT22;62505;46.070;14.492;2023-08-06T05:05:04;24.20;71.80
74153;DHT22;62505;46.070;14.492;2023-08-06T05:07:31;24.20;71.50
74153;DHT22;62505;46.070;14.492;2023-08-06T05:09:58;24.20;71.40
74153;DHT22;62505;46.070;14.492;2023-08-06T05:12:25;24.20;71.30
74153;DHT22;62505;46.070;14.492;2023-08-06T05:14:52;24.20;71.10
74153;DHT22;62505;46.070;14.492;2023-08-06T05:17:19;24.20;71.00
74153;DHT22;62505;46.070;14.492;2023-08-06T05:19:49;24.10;70.90
74153;DHT22;62505;46.070;14.492;2023-08-06T05:22:16;24.10;70.90
74153;DHT22;62505;46.070;14.492;2023-08-06T05:24:43;24.20;70.90
74153;DHT22;62505;46.070;14.492;2023-08-06T05:27:10;24.10;70.70
74153;DHT22;62505;46.070;14.492;2023-08-06T05:29:37;24.10;70.80
74153;DHT22;62505;46.070;14.492;2023-08-06T05:32:05;24.10;70.70
74153;DHT22;62505;46.070;14.492;2023-08-06T05:34:32;24.10;70.80
74153;DHT22;62505;46.070;14.492;2023-08-06T05:37:00;24.10;70.80
74153;DHT22;62505;46.070;14.492;2023-08-06T05:39:27;24.10;70.70
74153;DHT22;62505;46.070;14.492;2023-08-06T05:41:54;24.10;70.70
74153;DHT22;62505;46.070;14.492;2023-08-06T05:44:22;24.10;70.70
74153;DHT22;62505;46.070;14.492;2023-08-06T05:46:49;24.10;70.80
74153;DHT22;62505;46.070;14.492;2023-08-06T05:49:17;24.10;70.90
74153;DHT22;62505;46.070;14.492;2023-08-06T05:51:44;24.10;70.90
74153;DHT22;62505;46.070;14.492;2023-08-06T05:54:12;24.10;70.90
74153;DHT22;62505;46.070;14.492;2023-08-06T05:56:39;24.10;70.80
74153;DHT22;62505;46.070;14.492;2023-08-06T05:59:06;24.10;70.80
74153;DHT22;62505;46.070;14.492;2023-08-06T06:01:33;24.10;70.70
74153;DHT22;62505;46.070;14.492;2023-08-06T06:04:00;24.10;70.80
74153;DHT22;62505;46.070;14.492;2023-08-06T06:06:27;24.10;70.70
74153;DHT22;62505;46.070;14.492;2023-08-06T06:08:54;24.10;70.80
74153;DHT22;62505;46.070;14.492;2023-08-06T06:11:23;24.10;71.10
74153;DHT22;62505;46.070;14.492;2023-08-06T06:13:51;24.10;71.40
74153;DHT22;62505;46.070;14.492;2023-08-06T06:16:18;24.10;71.30
74153;DHT22;62505;46.070;14.492;2023-08-06T06:18:45;24.20;71.40
74153;DHT22;62505;46.070;14.492;2023-08-06T06:21:12;24.10;71.30
74153;DHT22;62505;46.070;14.492;2023-08-06T06:23:39;24.10;71.90
74153;DHT22;62505;46.070;14.492;2023-08-06T06:26:06;24.10;71.20
74153;DHT22;62505;46.070;14.492;2023-08-06T06:28:34;24.10;71.30
74153;DHT22;62505;46.070;14.492;2023-08-06T06:31:01;24.10;71.30
74153;DHT22;62505;46.070;14.492;2023-08-06T06:33:29;24.10;71.40
74153;DHT22;62505;46.070;14.492;2023-08-06T06:35:56;24.10;71.40
74153;DHT22;62505;46.070;14.492;2023-08-06T06:38:23;24.10;71.70
74153;DHT22;62505;46.070;14.492;2023-08-06T06:40:54;24.10;73.40
74153;DHT22;62505;46.070;14.492;2023-08-06T06:43:20;24.20;76.30
74153;DHT22;62505;46.070;14.492;2023-08-06T06:45:52;24.20;72.80
74153;DHT22;62505;46.070;14.492;2023-08-06T06:48:20;24.20;72.80
74153;DHT22;62505;46.070;14.492;2023-08-06T06:50:47;24.20;72.40
74153;DHT22;62505;46.070;14.492;2023-08-06T06:53:14;24.20;72.50
74153;DHT22;62505;46.070;14.492;2023-08-06T06:55:41;24.20;72.40
74153;DHT22;62505;46.070;14.492;2023-08-06T06:58:09;24.10;72.20
74153;DHT22;62505;46.070;14.492;2023-08-06T07:00:36;24.10;71.80
74153;DHT22;62505;46.070;14.492;2023-08-06T07:03:04;24.10;71.90
74153;DHT22;62505;46.070;14.492;2023-08-06T07:05:31;24.10;72.10
74153;DHT22;62505;46.070;14.492;2023-08-06T07:07:59;24.10;71.70
74153;DHT22;62505;46.070;14.492;2023-08-06T07:10:26;24.10;71.60
74153;DHT22;62505;46.070;14.492;2023-08-06T07:12:53;24.10;71.50
74153;DHT22;62505;46.070;14.492;2023-08-06T07:15:20;24.10;71.60
74153;DHT22;62505;46.070;14.492;2023-08-06T07:17:47;24.10;71.50
74153;DHT22;62505;46.070;14.492;2023-08-06T07:20:16;24.10;71.70
74153;DHT22;62505;46.070;14.492;2023-08-06T07:22:44;24.10;71.70
74153;DHT22;62505;46.070;14.492;2023-08-06T07:25:11;24.10;71.70
74153;DHT22;62505;46.070;14.492;2023-08-06T07:27:38;24.10;71.50
74153;DHT22;62505;46.070;14.492;2023-08-06T07:30:06;24.10;71.60
74153;DHT22;62505;46.070;14.492;2023-08-06T07:32:33;24.10;71.50
74153;DHT22;62505;46.070;14.492;2023-08-06T07:35:00;24.10;71.60
74153;DHT22;62505;46.070;14.492;2023-08-06T07:37:29;24.10;71.60
74153;DHT22;62505;46.070;14.492;2023-08-06T07:39:57;24.10;71.60
74153;DHT22;62505;46.070;14.492;2023-08-06T07:42:24;24.10;71.70
74153;DHT22;62505;46.070;14.492;2023-08-06T07:44:53;24.10;71.70
74153;DHT22;62505;46.070;14.492;2023-08-06T07:47:20;24.10;71.80
74153;DHT22;62505;46.070;14.492;2023-08-06T07:49:47;24.10;71.50
74153;DHT22;62505;46.070;14.492;2023-08-06T07:52:14;24.10;71.40
74153;DHT22;62505;46.070;14.492;2023-08-06T07:54:42;24.10;71.40
74153;DHT22;62505;46.070;14.492;2023-08-06T07:57:09;24.10;71.40
74153;DHT22;62505;46.070;14.492;2023-08-06T07:59:36;24.10;71.40
74153;DHT22;62505;46.070;14.492;2023-08-06T08:02:04;24.10;72.40
74153;DHT22;62505;46.070;14.492;2023-08-06T08:04:32;24.10;72.10
74153;DHT22;62505;46.070;14.492;2023-08-06T08:06:59;24.10;74.00
74153;DHT22;62505;46.070;14.492;2023-08-06T08:09:26;24.10;72.70
74153;DHT22;62505;46.070;14.492;2023-08-06T08:11:54;24.10;73.50
74153;DHT22;62505;46.070;14.492;2023-08-06T08:14:21;24.10;73.40
74153;DHT22;62505;46.070;14.492;2023-08-06T08:16:48;24.10;73.20
74153;DHT22;62505;46.070;14.492;2023-08-06T08:19:15;24.10;73.00
74153;DHT22;62505;46.070;14.492;2023-08-06T08:21:42;24.10;73.20
74153;DHT22;62505;46.070;14.492;2023-08-06T08:24:09;24.10;73.10
74153;DHT22;62505;46.070;14.492;2023-08-06T08:26:36;24.10;72.90
74153;DHT22;62505;46.070;14.492;2023-08-06T08:29:05;24.10;73.00
74153;DHT22;62505;46.070;14.492;2023-08-06T08:31:31;24.10;73.10
74153;DHT22;62505;46.070;14.492;2023-08-06T08:34:04;24.10;72.90
74153;DHT22;62505;46.070;14.492;2023-08-06T08:36:32;24.10;72.80
74153;DHT22;62505;46.070;14.492;2023-08-06T08:38:59;24.10;72.90
74153;DHT22;62505;46.070;14.492;2023-08-06T08:41:28;24.10;72.70
74153;DHT22;62505;46.070;14.492;2023-08-06T08:43:56;24.10;72.80
74153;DHT22;62505;46.070;14.492;2023-08-06T08:46:27;24.10;72.80
74153;DHT22;62505;46.070;14.492;2023-08-06T08:48:54;24.10;72.70
74153;DHT22;62505;46.070;14.492;2023-08-06T08:51:23;24.10;72.60
74153;DHT22;62505;46.070;14.492;2023-08-06T08:53:53;24.10;73.00
74153;DHT22;62505;46.070;14.492;2023-08-06T08:56:22;24.10;72.90
74153;DHT22;62505;46.070;14.492;2023-08-06T08:58:48;24.10;72.70
74153;DHT22;62505;46.070;14.492;2023-08-06T09:01:16;24.10;72.80
74153;DHT22;62505;46.070;14.492;2023-08-06T09:03:44;24.10;73.50
74153;DHT22;62505;46.070;14.492;2023-08-06T09:06:12;24.10;72.80
74153;DHT22;62505;46.070;14.492;2023-08-06T09:08:46;24.10;72.80
74153;DHT22;62505;46.070;14.492;2023-08-06T09:11:14;24.10;72.80
74153;DHT22;62505;46.070;14.492;2023-08-06T09:13:41;24.10;72.90
74153;DHT22;62505;46.070;14.492;2023-08-06T09:16:08;24.10;72.80
74153;DHT22;62505;46.070;14.492;2023-08-06T09:18:39;24.00;72.70
74153;DHT22;62505;46.070;14.492;2023-08-06T09:21:13;24.10;72.80
74153;DHT22;62505;46.070;14.492;2023-08-06T09:23:41;24.00;72.60
74153;DHT22;62505;46.070;14.492;2023-08-06T09:26:13;24.10;72.60
74153;DHT22;62505;46.070;14.492;2023-08-06T09:28:41;24.00;72.50
74153;DHT22;62505;46.070;14.492;2023-08-06T09:31:09;24.00;72.50
74153;DHT22;62505;46.070;14.492;2023-08-06T09:33:37;24.10;72.50
74153;DHT22;62505;46.070;14.492;2023-08-06T09:36:10;24.10;72.50
74153;DHT22;62505;46.070;14.492;2023-08-06T09:38:40;24.10;72.60
74153;DHT22;62505;46.070;14.492;2023-08-06T09:41:08;24.10;72.60
74153;DHT22;62505;46.070;14.492;2023-08-06T09:43:41;24.10;72.70
74153;DHT22;62505;46.070;14.492;2023-08-06T09:46:12;24.10;72.70
74153;DHT22;62505;46.070;14.492;2023-08-06T09:48:45;24.00;72.80
74153;DHT22;62505;46.070;14.492;2023-08-06T09:51:14;24.10;72.90
74153;DHT22;62505;46.070;14.492;2023-08-06T09:53:41;24.10;72.90
74153;DHT22;62505;46.070;14.492;2023-08-06T09:56:09;24.10;72.80
74153;DHT22;62505;46.070;14.492;2023-08-06T09:58:38;24.10;72.90
74153;DHT22;62505;46.070;14.492;2023-08-06T10:01:06;24.10;72.80
74153;DHT22;62505;46.070;14.492;2023-08-06T10:03:34;24.10;72.60
74153;DHT22;62505;46.070;14.492;2023-08-06T10:06:02;24.10;72.60
74153;DHT22;62505;46.070;14.492;2023-08-06T10:08:34;24.10;72.60
74153;DHT22;62505;46.070;14.492;2023-08-06T10:11:02;24.10;72.70
74153;DHT22;62505;46.070;14.492;2023-08-06T10:13:32;24.10;72.80
74153;DHT22;62505;46.070;14.492;2023-08-06T10:16:01;24.10;72.70
74153;DHT22;62505;46.070;14.492;2023-08-06T10:18:29;24.10;72.80
74153;DHT22;62505;46.070;14.492;2023-08-06T10:20:57;24.10;72.80
74153;DHT22;62505;46.070;14.492;2023-08-06T10:23:35;24.10;72.80
74153;DHT22;62505;46.070;14.492;2023-08-06T10:26:04;24.10;72.80
74153;DHT22;62505;46.070;14.492;2023-08-06T10:28:34;24.10;73.30
74153;DHT22;62505;46.070;14.492;2023-08-06T10:31:02;24.10;74.20
74153;DHT22;62505;46.070;14.492;2023-08-06T10:33:41;24.10;75.60
74153;DHT22;62505;46.070;14.492;2023-08-06T10:36:09;24.10;75.90
74153;DHT22;62505;46.070;14.492;2023-08-06T10:38:46;24.10;75.70
74153;DHT22;62505;46.070;14.492;2023-08-06T10:41:22;24.10;75.70
74153;DHT22;62505;46.070;14.492;2023-08-06T10:43:49;24.10;75.60
74153;DHT22;62505;46.070;14.492;2023-08-06T10:46:26;24.10;75.90
74153;DHT22;62505;46.070;14.492;2023-08-06T10:48:53;24.10;76.20
74153;DHT22;62505;46.070;14.492;2023-08-06T10:51:21;24.10;76.00
74153;DHT22;62505;46.070;14.492;2023-08-06T10:53:50;24.10;76.20
74153;DHT22;62505;46.070;14.492;2023-08-06T10:56:18;24.10;76.20
74153;DHT22;62505;46.070;14.492;2023-08-06T10:58:46;24.10;76.50
74153;DHT22;62505;46.070;14.492;2023-08-06T11:01:13;24.10;77.00
74153;DHT22;62505;46.070;14.492;2023-08-06T11:03:42;24.10;77.20
74153;DHT22;62505;46.070;14.492;2023-08-06T11:06:10;24.10;77.60
74153;DHT22;62505;46.070;14.492;2023-08-06T11:08:40;24.10;77.80
74153;DHT22;62505;46.070;14.492;2023-08-06T11:11:13;24.10;77.60
74153;DHT22;62505;46.070;14.492;2023-08-06T11:13:40;24.10;77.40
74153;DHT22;62505;46.070;14.492;2023-08-06T11:16:07;24.00;77.60
74153;DHT22;62505;46.070;14.492;2023-08-06T11:18:35;24.00;77.70
74153;DHT22;62505;46.070;14.492;2023-08-06T11:21:02;24.00;77.60
74153;DHT22;62505;46.070;14.492;2023-08-06T11:23:29;24.10;77.40
74153;DHT22;62505;46.070;14.492;2023-08-06T11:25:59;24.00;77.00
74153;DHT22;62505;46.070;14.492;2023-08-06T11:28:28;24.00;76.90
74153;DHT22;62505;46.070;14.492;2023-08-06T11:30:55;24.00;76.50
74153;DHT22;62505;46.070;14.492;2023-08-06T11:33:23;24.00;76.10
74153;DHT22;62505;46.070;14.492;2023-08-06T11:35:51;24.00;76.40
74153;DHT22;62505;46.070;14.492;2023-08-06T11:38:18;24.00;76.70
74153;DHT22;62505;46.070;14.492;2023-08-06T11:40:46;24.10;76.90
74153;DHT22;62505;46.070;14.492;2023-08-06T11:43:14;24.10;77.40
74153;DHT22;62505;46.070;14.492;2023-08-06T11:45:43;24.10;77.60
74153;DHT22;62505;46.070;14.492;2023-08-06T11:48:10;24.10;77.90
74153;DHT22;62505;46.070;14.492;2023-08-06T11:50:37;24.10;78.00
74153;DHT22;62505;46.070;14.492;2023-08-06T11:53:05;24.10;78.20
74153;DHT22;62505;46.070;14.492;2023-08-06T11:55:32;24.10;79.40
74153;DHT22;62505;46.070;14.492;2023-08-06T11:58:03;24.10;79.60
74153;DHT22;62505;46.070;14.492;2023-08-06T12:00:30;24.20;79.40
74153;DHT22;62505;46.070;14.492;2023-08-06T12:02:59;24.10;79.00
74153;DHT22;62505;46.070;14.492;2023-08-06T12:05:30;24.10;79.10
74153;DHT22;62505;46.070;14.492;2023-08-06T12:07:59;24.10;79.20
74153;DHT22;62505;46.070;14.492;2023-08-06T12:10:28;24.10;79.10
74153;DHT22;62505;46.070;14.492;2023-08-06T12:12:55;24.10;79.30
74153;DHT22;62505;46.070;14.492;2023-08-06T12:15:23;24.10;78.90
74153;DHT22;62505;46.070;14.492;2023-08-06T12:17:50;24.10;78.60
74153;DHT22;62505;46.070;14.492;2023-08-06T12:20:19;24.10;78.50
74153;DHT22;62505;46.070;14.492;2023-08-06T12:22:46;24.10;78.20
74153;DHT22;62505;46.070;14.492;2023-08-06T12:25:13;24.10;78.60
74153;DHT22;62505;46.070;14.492;2023-08-06T12:27:41;24.10;78.10
74153;DHT22;62505;46.070;14.492;2023-08-06T12:30:10;24.10;78.10
74153;DHT22;62505;46.070;14.492;2023-08-06T12:32:38;24.10;77.90
74153;DHT22;62505;46.070;14.492;2023-08-06T12:35:06;24.10;77.50
74153;DHT22;62505;46.070;14.492;2023-08-06T12:37:35;24.10;77.90
74153;DHT22;62505;46.070;14.492;2023-08-06T12:40:05;24.10;78.20
74153;DHT22;62505;46.070;14.492;2023-08-06T12:42:32;24.10;77.40
74153;DHT22;62505;46.070;14.492;2023-08-06T12:44:59;24.10;77.10
74153;DHT22;62505;46.070;14.492;2023-08-06T12:47:26;24.00;76.50
74153;DHT22;62505;46.070;14.492;2023-08-06T12:49:53;24.00;76.30
74153;DHT22;62505;46.070;14.492;2023-08-06T12:52:20;24.00;76.40
74153;DHT22;62505;46.070;14.492;2023-08-06T12:54:48;24.00;76.20
74153;DHT22;62505;46.070;14.492;2023-08-06T12:57:15;24.00;76.30
74153;DHT22;62505;46.070;14.492;2023-08-06T12:59:43;24.00;76.30
74153;DHT22;62505;46.070;14.492;2023-08-06T13:02:10;24.00;75.90
74153;DHT22;62505;46.070;14.492;2023-08-06T13:04:37;23.90;75.50
74153;DHT22;62505;46.070;14.492;2023-08-06T13:07:04;24.00;75.40
74153;DHT22;62505;46.070;14.492;2023-08-06T13:09:32;23.90;75.90
74153;DHT22;62505;46.070;14.492;2023-08-06T13:12:00;23.90;75.70
74153;DHT22;62505;46.070;14.492;2023-08-06T13:14:31;23.90;75.10
74153;DHT22;62505;46.070;14.492;2023-08-06T13:16:58;23.90;75.20
74153;DHT22;62505;46.070;14.492;2023-08-06T13:19:25;23.90;75.30
74153;DHT22;62505;46.070;14.492;2023-08-06T13:22:00;23.90;75.10
74153;DHT22;62505;46.070;14.492;2023-08-06T13:24:28;23.90;75.60
74153;DHT22;62505;46.070;14.492;2023-08-06T13:26:55;23.90;75.60
74153;DHT22;62505;46.070;14.492;2023-08-06T13:29:24;23.80;75.40
74153;DHT22;62505;46.070;14.492;2023-08-06T13:31:51;23.80;74.60
74153;DHT22;62505;46.070;14.492;2023-08-06T13:34:18;23.90;74.70
74153;DHT22;62505;46.070;14.492;2023-08-06T13:36:45;23.80;74.90
74153;DHT22;62505;46.070;14.492;2023-08-06T13:39:12;23.80;74.30
74153;DHT22;62505;46.070;14.492;2023-08-06T13:41:42;23.90;74.20
74153;DHT22;62505;46.070;14.492;2023-08-06T13:44:09;23.80;74.20
74153;DHT22;62505;46.070;14.492;2023-08-06T13:46:37;23.80;74.30
74153;DHT22;62505;46.070;14.492;2023-08-06T13:49:04;23.80;74.60
74153;DHT22;62505;46.070;14.492;2023-08-06T13:51:31;23.80;74.70
74153;DHT22;62505;46.070;14.492;2023-08-06T13:53:59;23.80;75.00
74153;DHT22;62505;46.070;14.492;2023-08-06T13:56:26;23.80;75.00
74153;DHT22;62505;46.070;14.492;2023-08-06T13:58:55;23.90;75.30
74153;DHT22;62505;46.070;14.492;2023-08-06T14:01:22;23.90;75.30
74153;DHT22;62505;46.070;14.492;2023-08-06T14:03:50;23.90;75.10
74153;DHT22;62505;46.070;14.492;2023-08-06T14:06:19;23.90;75.00
74153;DHT22;62505;46.070;14.492;2023-08-06T14:08:46;23.80;74.70
74153;DHT22;62505;46.070;14.492;2023-08-06T14:11:13;23.80;74.30
74153;DHT22;62505;46.070;14.492;2023-08-06T14:13:40;23.90;74.30
74153;DHT22;62505;46.070;14.492;2023-08-06T14:16:07;23.80;73.90
74153;DHT22;62505;46.070;14.492;2023-08-06T14:18:34;23.80;74.20
74153;DHT22;62505;46.070;14.492;2023-08-06T14:21:05;23.90;74.20
74153;DHT22;62505;46.070;14.492;2023-08-06T14:23:32;23.80;74.40
74153;DHT22;62505;46.070;14.492;2023-08-06T14:25:59;23.80;74.30
74153;DHT22;62505;46.070;14.492;2023-08-06T14:28:26;23.80;74.60
74153;DHT22;62505;46.070;14.492;2023-08-06T14:30:53;23.80;74.60
74153;DHT22;62505;46.070;14.492;2023-08-06T14:33:21;23.90;74.80
74153;DHT22;62505;46.070;14.492;2023-08-06T14:35:48;23.80;74.90
74153;DHT22;62505;46.070;14.492;2023-08-06T14:38:19;23.80;75.00
74153;DHT22;62505;46.070;14.492;2023-08-06T14:40:46;23.80;75.30
74153;DHT22;62505;46.070;14.492;2023-08-06T14:43:13;23.80;75.90
74153;DHT22;62505;46.070;14.492;2023-08-06T14:45:40;23.80;76.60
74153;DHT22;62505;46.070;14.492;2023-08-06T14:48:07;23.80;75.90
74153;DHT22;62505;46.070;14.492;2023-08-06T14:50:34;23.80;76.00
74153;DHT22;62505;46.070;14.492;2023-08-06T14:53:02;23.80;75.90
74153;DHT22;62505;46.070;14.492;2023-08-06T14:55:31;23.80;76.00
74153;DHT22;62505;46.070;14.492;2023-08-06T14:58:00;23.80;77.10
74153;DHT22;62505;46.070;14.492;2023-08-06T15:00:27;23.80;76.40
74153;DHT22;62505;46.070;14.492;2023-08-06T15:02:54;23.80;75.70
74153;DHT22;62505;46.070;14.492;2023-08-06T15:05:21;23.80;75.70
74153;DHT22;62505;46.070;14.492;2023-08-06T15:07:48;23.80;75.60
74153;DHT22;62505;46.070;14.492;2023-08-06T15:10:15;23.80;75.30
74153;DHT22;62505;46.070;14.492;2023-08-06T15:12:43;23.80;75.30
74153;DHT22;62505;46.070;14.492;2023-08-06T15:15:11;23.80;75.30
74153;DHT22;62505;46.070;14.492;2023-08-06T15:17:38;23.80;75.00
74153;DHT22;62505;46.070;14.492;2023-08-06T15:20:06;23.80;74.50